sensor_id;sensor_type;location;lat;lon;timestamp;P1;durP1;ratioP1;P2;durP2;ratioP2
36551;SDS011;22559;54.176;12.102;2023-04-01T00:01:37;4.43;;;4.03;;
36551;SDS011;22559;54.176;12.102;2023-04-01T00:04:03;5.83;;;4.67;;
36551;SDS011;22559;54.176;12.102;2023-04-01T00:06:28;6.17;;;4.17;;
36551;SDS011;22559;54.176;12.102;2023-04-01T00:08:54;5.80;;;4.53;;
36551;SDS011;22559;54.176;12.102;2023-04-01T00:11:20;4.43;;;4.03;;
36551;SDS011;22559;54.176;12.102;2023-04-01T00:13:46;5.07;;;4.37;;
36551;SDS011;22559;54.176;12.102;2023-04-01T00:16:12;4.20;;;3.80;;
36551;SDS011;22559;54.176;12.102;2023-04-01T00:18:38;3.93;;;3.57;;
36551;SDS011;22559;54.176;12.102;2023-04-01T00:21:04;5.00;;;4.00;;
36551;SDS011;22559;54.176;12.102;2023-04-01T00:23:31;4.00;;;3.57;;
36551;SDS011;22559;54.176;12.102;2023-04-01T00:25:59;4.07;;;3.50;;
36551;SDS011;22559;54.176;12.102;2023-04-01T00:28:25;4.50;;;3.63;;
36551;SDS011;22559;54.176;12.102;2023-04-01T00:30:52;3.60;;;3.20;;
36551;SDS011;22559;54.176;12.102;2023-04-01T00:33:17;4.37;;;3.47;;
36551;SDS011;22559;54.176;12.102;2023-04-01T00:35:43;4.13;;;3.73;;
36551;SDS011;22559;54.176;12.102;2023-04-01T00:38:09;3.60;;;3.30;;
36551;SDS011;22559;54.176;12.102;2023-04-01T00:40:40;3.10;;;2.90;;
36551;SDS011;22559;54.176;12.102;2023-04-01T00:43:14;3.33;;;3.07;;
36551;SDS011;22559;54.176;12.102;2023-04-01T00:45:44;3.87;;;3.07;;
36551;SDS011;22559;54.176;12.102;2023-04-01T00:53:53;4.10;;;3.10;;
36551;SDS011;22559;54.176;12.102;2023-04-01T00:56:22;3.50;;;3.20;;
36551;SDS011;22559;54.176;12.102;2023-04-01T00:58:57;3.50;;;3.10;;
36551;SDS011;22559;54.176;12.102;2023-04-01T01:01:33;3.37;;;3.07;;
36551;SDS011;22559;54.176;12.102;2023-04-01T01:04:00;3.67;;;3.37;;
36551;SDS011;22559;54.176;12.102;2023-04-01T01:14:48;4.03;;;3.20;;
36551;SDS011;22559;54.176;12.102;2023-04-01T01:20:25;3.40;;;3.20;;
36551;SDS011;22559;54.176;12.102;2023-04-01T01:31:19;4.47;;;3.50;;
36551;SDS011;22559;54.176;12.102;2023-04-01T01:36:58;3.93;;;3.07;;
36551;SDS011;22559;54.176;12.102;2023-04-01T01:39:29;3.17;;;2.90;;
36551;SDS011;22559;54.176;12.102;2023-04-01T01:42:00;3.00;;;2.70;;
36551;SDS011;22559;54.176;12.102;2023-04-01T01:44:28;3.37;;;3.10;;
36551;SDS011;22559;54.176;12.102;2023-04-01T01:46:56;4.27;;;3.27;;
36551;SDS011;22559;54.176;12.102;2023-04-01T01:49:22;4.90;;;3.07;;
36551;SDS011;22559;54.176;12.102;2023-04-01T01:51:49;3.40;;;3.10;;
36551;SDS011;22559;54.176;12.102;2023-04-01T01:54:18;4.13;;;3.40;;
36551;SDS011;22559;54.176;12.102;2023-04-01T01:56:45;4.83;;;3.00;;
36551;SDS011;22559;54.176;12.102;2023-04-01T01:59:14;3.30;;;3.03;;
36551;SDS011;22559;54.176;12.102;2023-04-01T02:01:42;3.47;;;3.17;;
36551;SDS011;22559;54.176;12.102;2023-04-01T02:04:12;3.50;;;3.20;;
36551;SDS011;22559;54.176;12.102;2023-04-01T02:06:42;3.50;;;3.20;;
36551;SDS011;22559;54.176;12.102;2023-04-01T02:09:11;6.37;;;3.83;;
36551;SDS011;22559;54.176;12.102;2023-04-01T02:11:39;6.97;;;3.77;;
36551;SDS011;22559;54.176;12.102;2023-04-01T02:14:52;3.77;;;3.37;;
36551;SDS011;22559;54.176;12.102;2023-04-01T02:17:23;4.70;;;3.33;;
36551;SDS011;22559;54.176;12.102;2023-04-01T02:19:52;3.73;;;3.43;;
36551;SDS011;22559;54.176;12.102;2023-04-01T02:22:22;5.60;;;3.73;;
36551;SDS011;22559;54.176;12.102;2023-04-01T02:24:52;3.77;;;2.83;;
36551;SDS011;22559;54.176;12.102;2023-04-01T02:27:22;4.43;;;2.90;;
36551;SDS011;22559;54.176;12.102;2023-04-01T02:29:48;3.57;;;2.90;;
36551;SDS011;22559;54.176;12.102;2023-04-01T02:32:15;4.97;;;3.30;;
36551;SDS011;22559;54.176;12.102;2023-04-01T02:34:43;3.93;;;3.20;;
36551;SDS011;22559;54.176;12.102;2023-04-01T02:37:10;3.90;;;3.47;;
36551;SDS011;22559;54.176;12.102;2023-04-01T02:39:37;3.20;;;2.83;;
36551;SDS011;22559;54.176;12.102;2023-04-01T02:42:02;4.10;;;3.43;;
36551;SDS011;22559;54.176;12.102;2023-04-01T02:44:28;4.40;;;3.40;;
36551;SDS011;22559;54.176;12.102;2023-04-01T02:46:54;3.10;;;2.80;;
36551;SDS011;22559;54.176;12.102;2023-04-01T02:49:19;5.40;;;2.90;;
36551;SDS011;22559;54.176;12.102;2023-04-01T02:51:45;5.27;;;2.73;;
36551;SDS011;22559;54.176;12.102;2023-04-01T02:54:11;2.97;;;2.53;;
36551;SDS011;22559;54.176;12.102;2023-04-01T02:56:36;3.20;;;2.90;;
36551;SDS011;22559;54.176;12.102;2023-04-01T02:59:02;3.17;;;2.33;;
36551;SDS011;22559;54.176;12.102;2023-04-01T03:01:28;2.87;;;2.67;;
36551;SDS011;22559;54.176;12.102;2023-04-01T03:03:54;3.50;;;3.20;;
36551;SDS011;22559;54.176;12.102;2023-04-01T03:06:19;3.20;;;2.90;;
36551;SDS011;22559;54.176;12.102;2023-04-01T03:08:45;6.13;;;3.23;;
36551;SDS011;22559;54.176;12.102;2023-04-01T03:11:11;4.73;;;3.07;;
36551;SDS011;22559;54.176;12.102;2023-04-01T03:13:37;5.17;;;3.27;;
36551;SDS011;22559;54.176;12.102;2023-04-01T03:16:03;5.23;;;3.50;;
36551;SDS011;22559;54.176;12.102;2023-04-01T03:18:29;4.10;;;3.20;;
36551;SDS011;22559;54.176;12.102;2023-04-01T03:20:55;4.93;;;3.30;;
36551;SDS011;22559;54.176;12.102;2023-04-01T03:23:20;3.63;;;3.00;;
36551;SDS011;22559;54.176;12.102;2023-04-01T03:25:46;3.93;;;3.10;;
36551;SDS011;22559;54.176;12.102;2023-04-01T03:28:13;3.80;;;3.40;;
36551;SDS011;22559;54.176;12.102;2023-04-01T03:30:39;4.67;;;3.20;;
36551;SDS011;22559;54.176;12.102;2023-04-01T03:33:05;3.80;;;3.23;;
36551;SDS011;22559;54.176;12.102;2023-04-01T03:35:31;4.23;;;3.33;;
36551;SDS011;22559;54.176;12.102;2023-04-01T03:37:57;4.60;;;3.03;;
36551;SDS011;22559;54.176;12.102;2023-04-01T03:40:22;4.37;;;2.90;;
36551;SDS011;22559;54.176;12.102;2023-04-01T03:42:49;3.10;;;2.90;;
36551;SDS011;22559;54.176;12.102;2023-04-01T03:45:15;3.97;;;3.00;;
36551;SDS011;22559;54.176;12.102;2023-04-01T03:47:41;4.30;;;3.47;;
36551;SDS011;22559;54.176;12.102;2023-04-01T03:50:07;3.77;;;3.40;;
36551;SDS011;22559;54.176;12.102;2023-04-01T03:52:33;3.50;;;3.20;;
36551;SDS011;22559;54.176;12.102;2023-04-01T03:55:00;4.37;;;3.90;;
36551;SDS011;22559;54.176;12.102;2023-04-01T03:57:26;4.53;;;3.67;;
36551;SDS011;22559;54.176;12.102;2023-04-01T03:59:52;4.30;;;3.83;;
36551;SDS011;22559;54.176;12.102;2023-04-01T04:02:17;4.00;;;3.63;;
36551;SDS011;22559;54.176;12.102;2023-04-01T04:04:43;5.03;;;3.70;;
36551;SDS011;22559;54.176;12.102;2023-04-01T04:07:09;5.37;;;3.70;;
36551;SDS011;22559;54.176;12.102;2023-04-01T04:09:35;5.93;;;3.77;;
36551;SDS011;22559;54.176;12.102;2023-04-01T04:12:01;3.47;;;3.10;;
36551;SDS011;22559;54.176;12.102;2023-04-01T04:14:26;5.50;;;3.37;;
36551;SDS011;22559;54.176;12.102;2023-04-01T04:16:52;6.20;;;3.20;;
36551;SDS011;22559;54.176;12.102;2023-04-01T04:19:18;3.87;;;2.70;;
36551;SDS011;22559;54.176;12.102;2023-04-01T04:21:43;3.10;;;2.90;;
36551;SDS011;22559;54.176;12.102;2023-04-01T04:24:09;3.37;;;2.93;;
36551;SDS011;22559;54.176;12.102;2023-04-01T04:26:35;5.50;;;3.87;;
36551;SDS011;22559;54.176;12.102;2023-04-01T04:29:00;4.90;;;3.77;;
36551;SDS011;22559;54.176;12.102;2023-04-01T04:31:27;3.30;;;3.00;;
36551;SDS011;22559;54.176;12.102;2023-04-01T04:33:53;3.37;;;3.07;;
36551;SDS011;22559;54.176;12.102;2023-04-01T04:36:19;3.97;;;3.13;;
36551;SDS011;22559;54.176;12.102;2023-04-01T04:38:46;4.57;;;3.40;;
36551;SDS011;22559;54.176;12.102;2023-04-01T04:41:12;3.77;;;3.30;;
36551;SDS011;22559;54.176;12.102;2023-04-01T04:43:48;3.63;;;3.33;;
36551;SDS011;22559;54.176;12.102;2023-04-01T04:46:18;7.17;;;3.70;;
36551;SDS011;22559;54.176;12.102;2023-04-01T04:48:44;4.13;;;3.43;;
36551;SDS011;22559;54.176;12.102;2023-04-01T04:51:12;4.10;;;3.70;;
36551;SDS011;22559;54.176;12.102;2023-04-01T04:53:42;3.67;;;3.37;;
36551;SDS011;22559;54.176;12.102;2023-04-01T04:56:08;5.67;;;3.30;;
36551;SDS011;22559;54.176;12.102;2023-04-01T04:58:34;4.47;;;3.33;;
36551;SDS011;22559;54.176;12.102;2023-04-01T05:01:11;3.93;;;3.53;;
36551;SDS011;22559;54.176;12.102;2023-04-01T05:03:39;4.53;;;3.23;;
36551;SDS011;22559;54.176;12.102;2023-04-01T05:06:05;3.67;;;3.37;;
36551;SDS011;22559;54.176;12.102;2023-04-01T05:08:32;8.43;;;3.73;;
36551;SDS011;22559;54.176;12.102;2023-04-01T05:10:59;3.97;;;2.97;;
36551;SDS011;22559;54.176;12.102;2023-04-01T05:13:25;3.77;;;3.00;;
36551;SDS011;22559;54.176;12.102;2023-04-01T05:15:51;3.40;;;3.10;;
36551;SDS011;22559;54.176;12.102;2023-04-01T05:18:17;6.03;;;3.37;;
36551;SDS011;22559;54.176;12.102;2023-04-01T05:20:47;3.00;;;2.80;;
36551;SDS011;22559;54.176;12.102;2023-04-01T05:23:17;5.17;;;2.93;;
36551;SDS011;22559;54.176;12.102;2023-04-01T05:25:43;5.70;;;3.33;;
36551;SDS011;22559;54.176;12.102;2023-04-01T05:28:10;3.70;;;3.37;;
36551;SDS011;22559;54.176;12.102;2023-04-01T05:30:36;4.37;;;3.43;;
36551;SDS011;22559;54.176;12.102;2023-04-01T05:33:01;4.00;;;3.33;;
36551;SDS011;22559;54.176;12.102;2023-04-01T05:35:27;5.07;;;3.20;;
36551;SDS011;22559;54.176;12.102;2023-04-01T05:37:53;4.00;;;3.70;;
36551;SDS011;22559;54.176;12.102;2023-04-01T05:40:18;4.77;;;3.23;;
36551;SDS011;22559;54.176;12.102;2023-04-01T05:42:44;3.00;;;2.80;;
36551;SDS011;22559;54.176;12.102;2023-04-01T05:45:10;4.00;;;3.60;;
36551;SDS011;22559;54.176;12.102;2023-04-01T05:47:35;4.80;;;3.90;;
36551;SDS011;22559;54.176;12.102;2023-04-01T05:50:01;4.53;;;3.77;;
36551;SDS011;22559;54.176;12.102;2023-04-01T05:52:27;6.07;;;3.57;;
36551;SDS011;22559;54.176;12.102;2023-04-01T05:54:52;4.00;;;3.60;;
36551;SDS011;22559;54.176;12.102;2023-04-01T05:57:18;5.60;;;3.50;;
36551;SDS011;22559;54.176;12.102;2023-04-01T05:59:44;4.40;;;3.47;;
36551;SDS011;22559;54.176;12.102;2023-04-01T06:02:10;4.47;;;3.43;;
36551;SDS011;22559;54.176;12.102;2023-04-01T06:04:39;4.73;;;3.70;;
36551;SDS011;22559;54.176;12.102;2023-04-01T06:07:15;3.57;;;3.27;;
36551;SDS011;22559;54.176;12.102;2023-04-01T06:09:42;3.97;;;3.10;;
36551;SDS011;22559;54.176;12.102;2023-04-01T06:17:47;3.07;;;2.87;;
36551;SDS011;22559;54.176;12.102;2023-04-01T06:23:01;4.23;;;3.30;;
36551;SDS011;22559;54.176;12.102;2023-04-01T06:54:34;4.07;;;3.67;;
36551;SDS011;22559;54.176;12.102;2023-04-01T06:57:16;4.47;;;4.03;;
36551;SDS011;22559;54.176;12.102;2023-04-01T06:59:45;5.43;;;3.47;;
36551;SDS011;22559;54.176;12.102;2023-04-01T07:02:18;6.20;;;3.70;;
36551;SDS011;22559;54.176;12.102;2023-04-01T07:04:53;4.67;;;3.60;;
36551;SDS011;22559;54.176;12.102;2023-04-01T07:10:21;5.13;;;3.67;;
36551;SDS011;22559;54.176;12.102;2023-04-01T07:12:53;7.83;;;3.93;;
36551;SDS011;22559;54.176;12.102;2023-04-01T07:15:25;5.80;;;3.60;;
36551;SDS011;22559;54.176;12.102;2023-04-01T07:18:23;6.20;;;4.07;;
36551;SDS011;22559;54.176;12.102;2023-04-01T07:20:55;10.27;;;3.90;;
36551;SDS011;22559;54.176;12.102;2023-04-01T07:23:26;5.80;;;4.20;;
36551;SDS011;22559;54.176;12.102;2023-04-01T07:26:00;4.60;;;4.07;;
36551;SDS011;22559;54.176;12.102;2023-04-01T07:28:36;7.13;;;4.13;;
36551;SDS011;22559;54.176;12.102;2023-04-01T07:31:07;6.20;;;4.63;;
36551;SDS011;22559;54.176;12.102;2023-04-01T07:36:29;6.93;;;5.10;;
36551;SDS011;22559;54.176;12.102;2023-04-01T07:41:54;8.30;;;4.97;;
36551;SDS011;22559;54.176;12.102;2023-04-01T07:49:57;7.77;;;5.80;;
36551;SDS011;22559;54.176;12.102;2023-04-01T07:55:12;10.33;;;5.33;;
36551;SDS011;22559;54.176;12.102;2023-04-01T08:03:33;5.60;;;4.90;;
36551;SDS011;22559;54.176;12.102;2023-04-01T08:16:23;13.10;;;8.40;;
36551;SDS011;22559;54.176;12.102;2023-04-01T08:21:32;16.53;;;7.43;;
36551;SDS011;22559;54.176;12.102;2023-04-01T08:26:54;10.87;;;5.67;;
36551;SDS011;22559;54.176;12.102;2023-04-01T08:29:23;9.03;;;5.70;;
36551;SDS011;22559;54.176;12.102;2023-04-01T08:34:51;14.03;;;5.83;;
36551;SDS011;22559;54.176;12.102;2023-04-01T08:37:32;8.10;;;5.33;;
36551;SDS011;22559;54.176;12.102;2023-04-01T08:49:04;8.50;;;4.83;;
36551;SDS011;22559;54.176;12.102;2023-04-01T08:57:21;9.63;;;5.57;;
36551;SDS011;22559;54.176;12.102;2023-04-01T09:10:59;10.77;;;6.57;;
36551;SDS011;22559;54.176;12.102;2023-04-01T09:19:17;7.73;;;4.80;;
36551;SDS011;22559;54.176;12.102;2023-04-01T10:26:52;8.93;;;6.20;;
36551;SDS011;22559;54.176;12.102;2023-04-01T10:38:17;10.03;;;4.80;;
36551;SDS011;22559;54.176;12.102;2023-04-01T10:40:24;7.30;;;4.73;;
36551;SDS011;22559;54.176;12.102;2023-04-01T10:57:37;5.63;;;4.37;;
36551;SDS011;22559;54.176;12.102;2023-04-01T11:00:37;5.57;;;4.57;;
36551;SDS011;22559;54.176;12.102;2023-04-01T11:39:20;5.53;;;4.00;;
36551;SDS011;22559;54.176;12.102;2023-04-01T11:44:39;4.37;;;3.97;;
36551;SDS011;22559;54.176;12.102;2023-04-01T11:47:30;16.00;;;9.97;;
36551;SDS011;22559;54.176;12.102;2023-04-01T11:53:42;4.17;;;3.77;;
36551;SDS011;22559;54.176;12.102;2023-04-01T11:58:55;5.13;;;3.70;;
36551;SDS011;22559;54.176;12.102;2023-04-01T12:01:36;4.37;;;3.03;;
36551;SDS011;22559;54.176;12.102;2023-04-01T12:12:52;7.90;;;3.47;;
36551;SDS011;22559;54.176;12.102;2023-04-01T12:15:30;3.60;;;3.30;;
36551;SDS011;22559;54.176;12.102;2023-04-01T12:18:27;6.53;;;3.60;;
36551;SDS011;22559;54.176;12.102;2023-04-01T12:32:01;4.03;;;3.17;;
36551;SDS011;22559;54.176;12.102;2023-04-01T12:39:56;4.17;;;3.30;;
36551;SDS011;22559;54.176;12.102;2023-04-01T12:45:38;4.80;;;3.40;;
36551;SDS011;22559;54.176;12.102;2023-04-01T12:56:00;5.33;;;3.93;;
36551;SDS011;22559;54.176;12.102;2023-04-01T13:01:19;2.97;;;2.70;;
36551;SDS011;22559;54.176;12.102;2023-04-01T13:14:24;4.30;;;3.07;;
36551;SDS011;22559;54.176;12.102;2023-04-01T13:22:31;5.40;;;3.00;;
36551;SDS011;22559;54.176;12.102;2023-04-01T13:27:28;4.00;;;3.07;;
36551;SDS011;22559;54.176;12.102;2023-04-01T13:31:01;3.03;;;2.60;;
36551;SDS011;22559;54.176;12.102;2023-04-01T13:42:05;4.27;;;3.07;;
36551;SDS011;22559;54.176;12.102;2023-04-01T13:53:13;3.77;;;2.37;;
36551;SDS011;22559;54.176;12.102;2023-04-01T14:01:24;2.57;;;2.37;;
36551;SDS011;22559;54.176;12.102;2023-04-01T14:04:17;2.73;;;2.53;;
36551;SDS011;22559;54.176;12.102;2023-04-01T14:07:32;4.63;;;2.60;;
36551;SDS011;22559;54.176;12.102;2023-04-01T14:13:12;2.53;;;2.43;;
36551;SDS011;22559;54.176;12.102;2023-04-01T14:21:47;2.40;;;2.20;;
36551;SDS011;22559;54.176;12.102;2023-04-01T14:35:36;2.23;;;2.03;;
36551;SDS011;22559;54.176;12.102;2023-04-01T14:41:04;2.63;;;2.43;;
36551;SDS011;22559;54.176;12.102;2023-04-01T14:49:48;2.97;;;2.30;;
36551;SDS011;22559;54.176;12.102;2023-04-01T14:54:47;3.33;;;2.40;;
36551;SDS011;22559;54.176;12.102;2023-04-01T14:57:15;7.03;;;2.80;;
36551;SDS011;22559;54.176;12.102;2023-04-01T15:36:42;3.53;;;2.40;;
36551;SDS011;22559;54.176;12.102;2023-04-01T15:38:54;2.83;;;2.50;;
36551;SDS011;22559;54.176;12.102;2023-04-01T15:41:29;4.33;;;2.40;;
36551;SDS011;22559;54.176;12.102;2023-04-01T15:44:03;3.00;;;2.70;;
36551;SDS011;22559;54.176;12.102;2023-04-01T15:46:49;3.50;;;2.40;;
36551;SDS011;22559;54.176;12.102;2023-04-01T15:55:08;3.40;;;2.57;;
36551;SDS011;22559;54.176;12.102;2023-04-01T16:08:41;2.50;;;2.30;;
36551;SDS011;22559;54.176;12.102;2023-04-01T16:13:59;2.40;;;2.20;;
36551;SDS011;22559;54.176;12.102;2023-04-01T16:22:19;3.37;;;2.50;;
36551;SDS011;22559;54.176;12.102;2023-04-01T16:30:34;4.30;;;2.47;;
36551;SDS011;22559;54.176;12.102;2023-04-01T16:35:41;3.77;;;3.10;;
36551;SDS011;22559;54.176;12.102;2023-04-01T16:43:45;4.93;;;2.40;;
36551;SDS011;22559;54.176;12.102;2023-04-01T16:54:14;3.70;;;2.10;;
36551;SDS011;22559;54.176;12.102;2023-04-01T16:56:55;2.70;;;2.13;;
36551;SDS011;22559;54.176;12.102;2023-04-01T17:05:03;4.33;;;2.30;;
36551;SDS011;22559;54.176;12.102;2023-04-01T17:07:35;3.37;;;2.13;;
36551;SDS011;22559;54.176;12.102;2023-04-01T17:10:25;2.43;;;2.20;;
36551;SDS011;22559;54.176;12.102;2023-04-01T17:13:17;4.90;;;3.43;;
36551;SDS011;22559;54.176;12.102;2023-04-01T17:21:09;2.70;;;2.50;;
36551;SDS011;22559;54.176;12.102;2023-04-01T17:23:43;4.03;;;2.13;;
36551;SDS011;22559;54.176;12.102;2023-04-01T17:28:57;2.93;;;2.10;;
36551;SDS011;22559;54.176;12.102;2023-04-01T17:34:03;5.70;;;2.77;;
36551;SDS011;22559;54.176;12.102;2023-04-01T17:45:37;3.27;;;2.30;;
36551;SDS011;22559;54.176;12.102;2023-04-01T17:50:52;2.47;;;2.27;;
36551;SDS011;22559;54.176;12.102;2023-04-01T17:56:42;2.20;;;2.10;;
36551;SDS011;22559;54.176;12.102;2023-04-01T17:59:23;5.80;;;3.20;;
36551;SDS011;22559;54.176;12.102;2023-04-01T18:04:47;2.23;;;2.07;;
36551;SDS011;22559;54.176;12.102;2023-04-01T18:23:51;3.30;;;2.00;;
36551;SDS011;22559;54.176;12.102;2023-04-01T18:26:40;3.53;;;1.87;;
36551;SDS011;22559;54.176;12.102;2023-04-01T18:29:17;3.90;;;1.93;;
36551;SDS011;22559;54.176;12.102;2023-04-01T18:31:49;2.13;;;1.60;;
36551;SDS011;22559;54.176;12.102;2023-04-01T18:37:19;2.20;;;2.10;;
36551;SDS011;22559;54.176;12.102;2023-04-01T18:43:00;4.63;;;1.80;;
36551;SDS011;22559;54.176;12.102;2023-04-01T18:45:58;2.70;;;2.10;;
36551;SDS011;22559;54.176;12.102;2023-04-01T18:56:51;6.57;;;3.73;;
36551;SDS011;22559;54.176;12.102;2023-04-01T19:02:40;2.80;;;1.70;;
36551;SDS011;22559;54.176;12.102;2023-04-01T19:05:34;4.40;;;1.73;;
36551;SDS011;22559;54.176;12.102;2023-04-01T19:13:27;1.70;;;1.60;;
36551;SDS011;22559;54.176;12.102;2023-04-01T19:21:55;2.80;;;1.97;;
36551;SDS011;22559;54.176;12.102;2023-04-01T19:24:49;3.03;;;1.80;;
36551;SDS011;22559;54.176;12.102;2023-04-01T19:27:40;3.37;;;1.87;;
36551;SDS011;22559;54.176;12.102;2023-04-01T19:30:27;4.53;;;1.93;;
36551;SDS011;22559;54.176;12.102;2023-04-01T19:33:10;4.33;;;1.80;;
36551;SDS011;22559;54.176;12.102;2023-04-01T19:36:10;3.03;;;1.70;;
36551;SDS011;22559;54.176;12.102;2023-04-01T19:39:09;5.33;;;2.50;;
36551;SDS011;22559;54.176;12.102;2023-04-01T19:42:02;3.60;;;1.97;;
36551;SDS011;22559;54.176;12.102;2023-04-01T19:47:37;1.97;;;1.60;;
36551;SDS011;22559;54.176;12.102;2023-04-01T19:50:46;4.57;;;1.90;;
36551;SDS011;22559;54.176;12.102;2023-04-01T19:53:16;1.97;;;1.87;;
36551;SDS011;22559;54.176;12.102;2023-04-01T19:58:41;2.20;;;1.60;;
36551;SDS011;22559;54.176;12.102;2023-04-01T20:01:35;2.10;;;1.90;;
36551;SDS011;22559;54.176;12.102;2023-04-01T20:06:48;2.60;;;2.40;;
36551;SDS011;22559;54.176;12.102;2023-04-01T20:14:58;2.00;;;1.67;;
36551;SDS011;22559;54.176;12.102;2023-04-01T20:17:30;2.83;;;1.80;;
36551;SDS011;22559;54.176;12.102;2023-04-01T20:25:15;1.67;;;1.57;;
36551;SDS011;22559;54.176;12.102;2023-04-01T20:28:04;3.93;;;1.63;;
36551;SDS011;22559;54.176;12.102;2023-04-01T20:30:47;1.67;;;1.47;;
36551;SDS011;22559;54.176;12.102;2023-04-01T20:33:33;2.40;;;1.53;;
36551;SDS011;22559;54.176;12.102;2023-04-01T20:36:06;2.43;;;1.60;;
36551;SDS011;22559;54.176;12.102;2023-04-01T20:51:32;6.23;;;2.97;;
36551;SDS011;22559;54.176;12.102;2023-04-01T21:19:31;2.50;;;1.50;;
36551;SDS011;22559;54.176;12.102;2023-04-01T21:24:50;1.63;;;1.53;;
36551;SDS011;22559;54.176;12.102;2023-04-01T21:38:56;1.80;;;1.70;;
36551;SDS011;22559;54.176;12.102;2023-04-01T21:58:36;1.40;;;1.40;;
36551;SDS011;22559;54.176;12.102;2023-04-01T22:04:29;5.13;;;1.67;;
36551;SDS011;22559;54.176;12.102;2023-04-01T22:07:14;1.70;;;1.60;;
36551;SDS011;22559;54.176;12.102;2023-04-01T22:12:38;2.27;;;2.07;;
36551;SDS011;22559;54.176;12.102;2023-04-01T22:20:53;2.97;;;1.80;;
36551;SDS011;22559;54.176;12.102;2023-04-01T22:23:52;2.90;;;1.43;;
36551;SDS011;22559;54.176;12.102;2023-04-01T22:26:46;3.07;;;1.50;;
36551;SDS011;22559;54.176;12.102;2023-04-01T22:29:28;4.90;;;1.90;;
36551;SDS011;22559;54.176;12.102;2023-04-01T22:32:07;7.50;;;1.90;;
36551;SDS011;22559;54.176;12.102;2023-04-01T22:45:05;1.57;;;1.47;;
36551;SDS011;22559;54.176;12.102;2023-04-01T22:48:46;2.27;;;2.03;;
36551;SDS011;22559;54.176;12.102;2023-04-01T22:50:57;1.47;;;1.37;;
36551;SDS011;22559;54.176;12.102;2023-04-01T22:56:17;4.40;;;2.60;;
36551;SDS011;22559;54.176;12.102;2023-04-01T23:01:36;3.60;;;1.70;;
36551;SDS011;22559;54.176;12.102;2023-04-01T23:04:08;3.73;;;2.03;;
36551;SDS011;22559;54.176;12.102;2023-04-01T23:06:40;2.57;;;1.50;;
36551;SDS011;22559;54.176;12.102;2023-04-01T23:09:28;2.20;;;1.30;;
36551;SDS011;22559;54.176;12.102;2023-04-01T23:12:03;1.60;;;1.50;;
36551;SDS011;22559;54.176;12.102;2023-04-01T23:22:35;2.20;;;1.50;;
36551;SDS011;22559;54.176;12.102;2023-04-01T23:30:50;1.27;;;1.27;;
36551;SDS011;22559;54.176;12.102;2023-04-01T23:38:34;2.53;;;1.50;;
36551;SDS011;22559;54.176;12.102;2023-04-01T23:41:06;2.93;;;1.50;;
36551;SDS011;22559;54.176;12.102;2023-04-01T23:43:59;2.30;;;1.60;;
36551;SDS011;22559;54.176;12.102;2023-04-01T23:46:25;2.20;;;1.77;;
36551;SDS011;22559;54.176;12.102;2023-04-01T23:48:53;3.23;;;2.13;;
36551;SDS011;22559;54.176;12.102;2023-04-01T23:51:21;1.90;;;1.80;;
36551;SDS011;22559;54.176;12.102;2023-04-01T23:54:04;2.90;;;1.50;;
36551;SDS011;22559;54.176;12.102;2023-04-01T23:56:49;1.50;;;1.50;;
36551;SDS011;22559;54.176;12.102;2023-04-01T23:59:18;2.53;;;1.60;;
